Time;durP1;ratioP1;P1;durP2;ratioP2;P2;SDS_P1;SDS_P2;PMS_P1;PMS_P2;Temp;Humidity;BMP_temperature;BMP_pressure;BME280_temperature;BME280_humidity;BME280_pressure;Samples;Min_cycle;Max_cycle;Signal;HPM_P1;HPM_P2
2022/08/17 00:01:44;;;;;;;1.20;1.10;;;32.00;52.90;;;;;;5114989;28;20489;-63
2022/08/17 00:04:22;;;;;;;0.87;0.80;;;32.00;54.30;;;;;;5120879;27;20485;-64
2022/08/17 00:06:54;;;;;;;2.30;1.13;;;32.00;53.90;;;;;;5132306;27;20491;-64
2022/08/17 00:09:25;;;;;;;1.10;1.10;;;31.80;54.10;;;;;;5123145;27;20520;-64
2022/08/17 00:11:56;;;;;;;1.10;1.00;;;31.80;54.90;;;;;;5124449;27;20464;-65
2022/08/17 00:14:49;;;;;;;0.80;0.80;;;31.80;55.60;;;;;;5123645;27;20450;-64
2022/08/17 00:17:19;;;;;;;1.00;1.00;;;31.80;54.70;;;;;;5121721;27;20463;-64
2022/08/17 00:19:50;;;;;;;3.10;2.27;;;31.70;54.60;;;;;;5128412;27;20467;-64
2022/08/17 00:22:23;;;;;;;0.90;0.90;;;31.50;55.10;;;;;;5123213;27;20464;-64
2022/08/17 00:25:06;;;;;;;1.23;1.13;;;31.50;54.30;;;;;;5126325;27;20469;-65
2022/08/17 00:27:37;;;;;;;0.93;0.93;;;31.50;55.70;;;;;;5121837;27;20472;-65
2022/08/17 00:30:10;;;;;;;1.07;0.90;;;31.50;54.80;;;;;;5130879;27;20486;-64
2022/08/17 00:32:45;;;;;;;0.77;0.77;;;31.50;54.40;;;;;;5143681;27;20467;-65
2022/08/17 00:35:36;;;;;;;1.20;1.00;;;31.50;54.30;;;;;;5143859;27;20560;-64
2022/08/17 00:38:10;;;;;;;2.73;1.17;;;31.40;54.00;;;;;;5143427;27;20491;-64
2022/08/17 00:40:44;;;;;;;1.03;0.90;;;31.40;54.90;;;;;;5130128;27;20455;-65
2022/08/17 00:43:19;;;;;;;1.00;0.80;;;31.40;54.60;;;;;;5113527;27;20485;-64
2022/08/17 00:45:50;;;;;;;0.90;0.90;;;31.20;54.60;;;;;;5143751;27;20450;-65
2022/08/17 00:48:22;;;;;;;1.17;0.80;;;31.20;55.00;;;;;;5144106;27;20442;-65
2022/08/17 00:51:07;;;;;;;0.90;0.90;;;31.00;55.00;;;;;;5127354;27;20904;-65
2022/08/17 00:53:43;;;;;;;1.20;1.00;;;30.90;55.80;;;;;;5143188;27;20458;-64
2022/08/17 00:56:18;;;;;;;1.57;1.00;;;30.90;56.10;;;;;;5141574;27;20961;-64
2022/08/17 00:58:52;;;;;;;1.13;1.03;;;30.90;56.00;;;;;;5140181;27;20513;-64
2022/08/17 01:01:23;;;;;;;1.53;1.27;;;31.00;55.90;;;;;;5120942;28;20508;-64
2022/08/17 01:03:55;;;;;;;0.93;0.93;;;31.00;56.60;;;;;;5114761;28;20561;-64
2022/08/17 01:06:30;;;;;;;1.30;1.20;;;31.00;55.90;;;;;;5129916;27;20463;-64
2022/08/17 01:09:03;;;;;;;1.17;0.90;;;31.10;56.60;;;;;;5114453;28;20486;-65
2022/08/17 01:11:38;;;;;;;0.93;0.93;;;31.00;56.20;;;;;;5125037;27;20489;-67
2022/08/17 01:14:10;;;;;;;0.90;0.90;;;31.00;56.00;;;;;;5115989;28;20452;-64
2022/08/17 01:16:41;;;;;;;1.30;1.20;;;31.00;56.50;;;;;;5122963;28;20806;-65
2022/08/17 01:19:19;;;;;;;1.23;0.90;;;30.90;55.40;;;;;;5124699;27;20479;-64
2022/08/17 01:21:57;;;;;;;1.40;1.30;;;30.80;55.90;;;;;;5117152;28;20462;-65
2022/08/17 01:24:30;;;;;;;1.27;1.20;;;30.90;56.50;;;;;;5127050;28;20457;-66
2022/08/17 01:27:03;;;;;;;1.97;0.90;;;30.80;55.60;;;;;;5122470;28;20455;-66
2022/08/17 01:29:41;;;;;;;1.07;0.90;;;30.70;55.70;;;;;;5126316;28;20458;-67
2022/08/17 01:32:12;;;;;;;1.07;0.97;;;30.60;55.40;;;;;;5121793;27;20476;-66
2022/08/17 01:34:43;;;;;;;0.83;0.80;;;30.50;55.80;;;;;;5125021;27;20465;-65
2022/08/17 01:37:21;;;;;;;0.83;0.83;;;30.40;55.90;;;;;;5125906;27;20456;-65
2022/08/17 01:39:58;;;;;;;1.27;1.10;;;30.40;56.10;;;;;;5128632;27;20485;-65
2022/08/17 01:42:34;;;;;;;0.90;0.90;;;30.40;56.70;;;;;;5118096;28;20462;-65
2022/08/17 01:45:09;;;;;;;1.00;1.00;;;30.30;56.10;;;;;;5123840;27;20491;-65
2022/08/17 01:47:40;;;;;;;1.47;1.30;;;30.30;56.40;;;;;;5129631;27;20441;-64
2022/08/17 01:50:15;;;;;;;1.20;1.10;;;30.20;57.30;;;;;;5126613;27;20455;-64
2022/08/17 01:52:47;;;;;;;1.23;1.13;;;30.20;56.40;;;;;;5131016;27;20457;-64
2022/08/17 01:55:25;;;;;;;1.33;1.20;;;30.10;56.30;;;;;;5117219;27;20456;-63
2022/08/17 01:57:56;;;;;;;1.47;1.37;;;30.10;56.70;;;;;;5125053;27;20464;-63
2022/08/17 02:00:28;;;;;;;1.30;1.13;;;30.00;56.90;;;;;;5122262;28;20465;-64
2022/08/17 02:03:20;;;;;;;1.47;1.10;;;29.90;56.90;;;;;;5123990;27;20505;-64
2022/08/17 02:05:52;;;;;;;1.30;1.20;;;29.80;56.80;;;;;;5121867;27;20470;-64
2022/08/17 02:08:23;;;;;;;1.40;1.30;;;29.70;56.50;;;;;;5134588;27;20455;-65
2022/08/17 02:11:13;;;;;;;0.83;0.83;;;29.70;57.10;;;;;;5119462;27;20577;-66
2022/08/17 02:13:44;;;;;;;0.90;0.90;;;29.50;57.70;;;;;;5126591;27;20559;-65
2022/08/17 02:16:15;;;;;;;1.20;0.97;;;29.50;58.00;;;;;;5125195;27;20461;-65
2022/08/17 02:18:46;;;;;;;1.30;1.03;;;29.50;57.30;;;;;;5118836;27;20499;-64
2022/08/17 02:21:17;;;;;;;1.50;1.33;;;29.40;57.90;;;;;;5141584;27;20460;-64
2022/08/17 02:23:49;;;;;;;1.20;1.10;;;29.40;57.00;;;;;;5114820;27;20471;-64
2022/08/17 02:26:21;;;;;;;0.70;0.70;;;29.40;57.40;;;;;;5127936;27;20460;-65
2022/08/17 02:28:55;;;;;;;2.90;1.00;;;29.20;58.10;;;;;;5140765;27;20441;-64
2022/08/17 02:31:26;;;;;;;1.10;1.00;;;29.10;58.10;;;;;;5128503;27;20467;-64
2022/08/17 02:33:57;;;;;;;1.30;1.20;;;29.00;57.90;;;;;;5131357;27;20447;-64
2022/08/17 02:36:35;;;;;;;1.73;1.10;;;28.90;57.90;;;;;;5121198;27;20545;-64
2022/08/17 02:39:08;;;;;;;1.20;1.10;;;28.70;58.60;;;;;;5132479;27;20500;-65
2022/08/17 02:41:40;;;;;;;0.90;0.90;;;28.70;58.80;;;;;;5126531;27;20454;-64
2022/08/17 02:44:11;;;;;;;1.73;1.13;;;28.60;59.10;;;;;;5125737;27;20463;-63
2022/08/17 02:47:02;;;;;;;0.97;0.83;;;28.50;59.90;;;;;;5123318;27;20472;-63
2022/08/17 02:49:33;;;;;;;1.27;1.00;;;28.40;61.10;;;;;;5130113;27;20457;-63
2022/08/17 02:52:07;;;;;;;0.93;0.93;;;28.20;62.00;;;;;;5130613;27;20464;-63
2022/08/17 02:54:38;;;;;;;1.30;1.20;;;28.10;63.20;;;;;;5133593;27;20463;-64
2022/08/17 02:57:13;;;;;;;1.60;1.10;;;28.00;64.00;;;;;;5122181;27;20467;-64
2022/08/17 02:59:44;;;;;;;1.50;1.40;;;27.90;65.70;;;;;;5118954;28;20479;-63
2022/08/17 03:02:18;;;;;;;1.60;1.20;;;27.80;65.50;;;;;;5121142;27;20476;-63
2022/08/17 03:04:48;;;;;;;2.60;1.57;;;27.80;66.20;;;;;;5124023;27;20494;-63
2022/08/17 03:07:19;;;;;;;1.50;1.40;;;27.60;66.70;;;;;;5122635;27;20458;-63
2022/08/17 03:09:52;;;;;;;1.57;1.47;;;27.60;67.00;;;;;;5120739;27;20583;-63
2022/08/17 03:12:25;;;;;;;1.77;1.67;;;27.50;67.70;;;;;;5121533;27;20447;-64
2022/08/17 03:14:56;;;;;;;1.47;1.37;;;27.40;68.70;;;;;;5124551;27;20457;-63
2022/08/17 03:17:26;;;;;;;1.67;1.43;;;27.30;69.20;;;;;;5121238;27;20453;-63
2022/08/17 03:19:57;;;;;;;1.60;1.47;;;27.20;69.60;;;;;;5115681;28;20568;-62
2022/08/17 03:22:29;;;;;;;1.50;1.40;;;27.10;70.30;;;;;;5123404;27;20446;-64
2022/08/17 03:25:08;;;;;;;1.77;1.63;;;26.90;70.90;;;;;;5143661;27;20456;-65
2022/08/17 03:27:41;;;;;;;1.40;1.30;;;26.80;71.80;;;;;;5144562;27;20445;-63
2022/08/17 03:30:17;;;;;;;1.30;1.20;;;26.70;72.10;;;;;;5139491;27;20455;-62
2022/08/17 03:32:51;;;;;;;1.93;1.43;;;26.60;72.40;;;;;;5120854;27;20469;-63
2022/08/17 03:35:24;;;;;;;1.57;1.20;;;26.50;73.20;;;;;;5123443;28;20453;-63
2022/08/17 03:37:55;;;;;;;1.37;1.17;;;26.60;72.90;;;;;;5121668;27;20475;-63
2022/08/17 03:40:31;;;;;;;1.40;1.30;;;26.70;73.20;;;;;;5119058;27;20493;-63
2022/08/17 03:43:24;;;;;;;1.80;1.30;;;26.70;73.30;;;;;;5121287;27;20559;-64
2022/08/17 03:57:24;;;;;;;1.67;1.57;;;26.30;76.40;;;;;;5123616;27;20461;-62
2022/08/17 03:59:57;;;;;;;2.47;2.00;;;26.20;77.20;;;;;;5122965;27;20494;-62
2022/08/17 04:02:30;;;;;;;1.50;1.40;;;26.10;77.80;;;;;;5136997;27;20459;-63
2022/08/17 04:05:02;;;;;;;1.97;1.60;;;26.00;79.50;;;;;;5124956;27;20479;-63
2022/08/17 04:07:33;;;;;;;1.77;1.67;;;26.00;79.10;;;;;;5120603;27;20923;-63
2022/08/17 04:10:04;;;;;;;1.60;1.50;;;25.90;79.10;;;;;;5135385;27;20455;-63
2022/08/17 04:12:47;;;;;;;1.50;1.40;;;25.90;80.00;;;;;;5135929;27;20490;-63
2022/08/17 04:15:20;;;;;;;1.60;1.50;;;25.80;80.80;;;;;;5125991;27;20457;-63
2022/08/17 04:17:50;;;;;;;1.83;1.50;;;25.70;81.60;;;;;;5130210;27;20531;-63
2022/08/17 04:20:23;;;;;;;1.90;1.80;;;25.60;82.00;;;;;;5125606;27;20502;-64
2022/08/17 04:23:00;;;;;;;1.63;1.53;;;25.60;82.70;;;;;;5134992;27;20500;-62
2022/08/17 04:25:35;;;;;;;1.70;1.60;;;25.60;82.90;;;;;;5115017;28;20446;-63
2022/08/17 04:28:06;;;;;;;2.10;1.40;;;25.50;83.00;;;;;;5137014;27;20464;-62
2022/08/17 04:30:47;;;;;;;1.53;1.43;;;25.40;84.00;;;;;;5122710;28;20447;-62
2022/08/17 04:33:22;;;;;;;1.87;1.43;;;25.30;84.50;;;;;;5122862;28;20448;-63
2022/08/17 04:35:58;;;;;;;2.20;2.00;;;25.30;84.50;;;;;;5122008;28;20445;-64
2022/08/17 04:38:32;;;;;;;2.43;1.50;;;25.30;85.30;;;;;;5122878;28;20458;-62
2022/08/17 04:43:57;;;;;;;2.20;2.00;;;25.10;86.30;;;;;;5122683;28;20431;-66
2022/08/17 04:46:35;;;;;;;1.77;1.67;;;25.00;86.10;;;;;;5122933;28;20461;-62
2022/08/17 04:49:11;;;;;;;1.27;1.20;;;25.10;86.60;;;;;;5123212;28;20538;-64
2022/08/17 04:51:44;;;;;;;1.80;1.70;;;25.00;86.60;;;;;;5122201;28;20478;-64
2022/08/17 04:54:25;;;;;;;1.80;1.57;;;25.10;86.40;;;;;;5111791;28;20514;-64
2022/08/17 04:56:56;;;;;;;1.80;1.70;;;25.10;86.70;;;;;;5122159;27;20457;-64
2022/08/17 04:59:27;;;;;;;1.87;1.57;;;25.10;86.20;;;;;;5126285;27;20475;-63
2022/08/17 05:01:59;;;;;;;2.00;1.90;;;25.10;85.70;;;;;;5134706;27;20453;-62
2022/08/17 05:04:30;;;;;;;1.70;1.60;;;25.10;85.30;;;;;;5123492;28;20485;-63
2022/08/17 05:07:04;;;;;;;1.53;1.43;;;25.00;86.00;;;;;;5122702;27;20490;-63
2022/08/17 05:09:35;;;;;;;1.60;1.50;;;25.00;85.20;;;;;;5125776;27;20450;-63
2022/08/17 05:12:07;;;;;;;2.47;2.00;;;24.90;85.60;;;;;;5126163;27;20475;-63
2022/08/17 05:14:40;;;;;;;1.80;1.63;;;24.80;85.80;;;;;;5121842;28;20492;-63
2022/08/17 05:17:12;;;;;;;1.80;1.67;;;24.80;86.20;;;;;;5123686;28;20456;-64
2022/08/17 05:19:43;;;;;;;1.53;1.40;;;24.70;86.50;;;;;;5120163;28;20545;-65
2022/08/17 05:22:20;;;;;;;1.60;1.50;;;24.60;86.90;;;;;;5130673;28;20487;-65
2022/08/17 05:24:50;;;;;;;1.73;1.40;;;24.40;87.10;;;;;;5128144;27;20454;-64
2022/08/17 05:27:24;;;;;;;2.13;1.47;;;24.40;87.50;;;;;;5126221;28;20458;-64
2022/08/17 05:30:04;;;;;;;1.83;1.57;;;24.40;87.60;;;;;;5115476;28;20463;-64
2022/08/17 05:32:36;;;;;;;1.80;1.70;;;24.40;87.60;;;;;;5118571;28;20476;-65
2022/08/17 05:35:09;;;;;;;1.60;1.50;;;24.30;88.00;;;;;;5107693;28;20775;-64
2022/08/17 05:37:40;;;;;;;1.80;1.60;;;24.20;88.20;;;;;;5111458;28;20464;-64
2022/08/17 05:40:12;;;;;;;1.87;1.63;;;24.20;88.00;;;;;;5122536;28;20488;-64
2022/08/17 05:42:43;;;;;;;1.80;1.67;;;24.20;88.50;;;;;;5140091;28;20452;-65
2022/08/17 05:45:14;;;;;;;1.97;1.50;;;24.10;88.60;;;;;;5123692;27;20461;-64
2022/08/17 05:48:02;;;;;;;1.10;1.00;;;24.10;88.40;;;;;;5110198;28;20546;-64
2022/08/17 05:50:50;;;;;;;1.43;1.33;;;24.10;88.30;;;;;;5125517;28;20457;-64
2022/08/17 05:53:27;;;;;;;1.67;1.50;;;24.10;88.60;;;;;;5112549;28;20464;-65
2022/08/17 05:56:14;;;;;;;2.17;1.50;;;24.00;88.50;;;;;;5108925;28;20462;-64
2022/08/17 05:59:09;;;;;;;1.87;1.53;;;24.00;88.70;;;;;;5121545;28;20506;-64
2022/08/17 06:01:49;;;;;;;1.93;1.63;;;24.00;88.80;;;;;;5115011;28;20508;-64
2022/08/17 06:04:32;;;;;;;1.80;1.27;;;24.00;89.00;;;;;;5124395;28;20485;-64
2022/08/17 06:07:09;;;;;;;2.20;1.80;;;23.90;89.10;;;;;;5114167;28;20472;-64
2022/08/17 06:09:46;;;;;;;1.40;1.30;;;23.90;89.50;;;;;;5117257;28;20472;-64
2022/08/17 06:12:34;;;;;;;1.37;1.27;;;23.80;89.70;;;;;;5110650;28;20469;-65
2022/08/17 06:15:23;;;;;;;1.70;1.57;;;23.80;89.80;;;;;;5126014;28;20489;-64
2022/08/17 06:17:59;;;;;;;2.37;1.63;;;23.70;90.20;;;;;;5118616;28;20508;-64
2022/08/17 06:20:43;;;;;;;2.23;1.67;;;23.70;90.30;;;;;;5119203;27;20497;-64
2022/08/17 06:23:18;;;;;;;3.50;1.30;;;23.60;90.30;;;;;;5122953;27;20467;-64
2022/08/17 06:25:54;;;;;;;1.37;1.27;;;23.60;90.40;;;;;;5133629;27;20469;-64
2022/08/17 06:28:30;;;;;;;1.60;1.30;;;23.60;90.40;;;;;;5127889;27;20464;-64
2022/08/17 06:31:07;;;;;;;1.63;1.53;;;23.60;90.60;;;;;;5132965;27;21228;-64
2022/08/17 06:33:40;;;;;;;2.10;1.43;;;23.50;90.80;;;;;;5114045;27;20468;-64
2022/08/17 06:36:27;;;;;;;1.47;1.37;;;23.50;90.80;;;;;;5133546;27;20490;-64
2022/08/17 06:39:08;;;;;;;1.90;1.30;;;23.50;91.00;;;;;;5123517;27;20938;-65
2022/08/17 06:41:48;;;;;;;1.70;1.60;;;23.50;91.10;;;;;;5119663;28;21014;-64
2022/08/17 06:44:24;;;;;;;1.50;1.40;;;23.50;91.30;;;;;;5127655;27;20461;-64
2022/08/17 06:47:24;;;;;;;1.30;1.20;;;23.40;91.40;;;;;;5122670;28;20473;-64
2022/08/17 06:50:07;;;;;;;1.50;1.40;;;23.30;91.80;;;;;;5113485;28;20476;-64
2022/08/17 06:52:49;;;;;;;1.53;1.40;;;23.30;91.90;;;;;;5113617;28;20462;-64
2022/08/17 06:55:26;;;;;;;1.70;1.60;;;23.20;92.10;;;;;;5122578;27;20465;-64
2022/08/17 06:58:00;;;;;;;1.37;1.27;;;23.20;92.40;;;;;;5115935;28;20468;-65
2022/08/17 07:00:48;;;;;;;1.30;1.20;;;23.20;92.40;;;;;;5121334;27;20504;-65
2022/08/17 07:03:40;;;;;;;1.33;1.20;;;23.10;92.70;;;;;;5116883;27;20480;-64
2022/08/17 07:06:15;;;;;;;1.40;1.30;;;23.10;92.70;;;;;;5117710;27;20469;-64
2022/08/17 07:08:58;;;;;;;1.80;1.47;;;23.10;92.80;;;;;;5128530;27;20845;-64
2022/08/17 07:11:32;;;;;;;1.20;1.10;;;23.00;93.10;;;;;;5125032;28;20454;-64
2022/08/17 07:14:21;;;;;;;1.97;1.57;;;23.00;93.30;;;;;;5130675;27;20452;-64
2022/08/17 07:16:54;;;;;;;1.00;0.93;;;22.90;93.40;;;;;;5121424;28;20525;-64
2022/08/17 07:19:27;;;;;;;2.10;1.60;;;22.90;93.60;;;;;;5125626;27;20465;-64
2022/08/17 07:22:06;;;;;;;1.00;1.00;;;22.90;93.70;;;;;;5108178;28;20485;-64
2022/08/17 07:24:46;;;;;;;1.40;1.30;;;22.90;93.80;;;;;;5120479;27;20492;-64
2022/08/17 07:27:19;;;;;;;3.30;1.70;;;22.80;94.10;;;;;;5123617;27;20471;-64
2022/08/17 07:29:55;;;;;;;1.67;1.57;;;22.80;94.30;;;;;;5128047;27;20468;-64
2022/08/17 07:32:30;;;;;;;1.37;1.27;;;22.80;94.40;;;;;;5120338;27;20465;-64
2022/08/17 07:35:11;;;;;;;1.40;1.30;;;22.70;94.60;;;;;;5126141;27;20470;-63
2022/08/17 07:37:49;;;;;;;1.57;1.47;;;22.80;94.60;;;;;;5122329;27;20930;-64
2022/08/17 07:40:29;;;;;;;1.93;1.43;;;22.70;94.60;;;;;;5121145;27;20446;-64
2022/08/17 07:43:11;;;;;;;1.67;1.57;;;22.70;94.80;;;;;;5121761;27;20494;-64
2022/08/17 07:49:19;;;;;;;2.13;1.93;;;22.60;95.20;;;;;;5123019;27;20465;-64
2022/08/17 07:51:59;;;;;;;1.50;1.40;;;22.60;95.50;;;;;;5136136;27;20468;-63
2022/08/17 07:54:50;;;;;;;1.30;1.20;;;22.50;95.70;;;;;;5134331;27;20461;-63
2022/08/17 07:57:36;;;;;;;1.50;1.40;;;22.50;95.90;;;;;;5125117;27;20529;-63
2022/08/17 08:00:20;;;;;;;1.60;1.50;;;22.50;96.00;;;;;;5111629;27;20465;-64
2022/08/17 08:03:15;;;;;;;1.60;1.40;;;22.50;96.20;;;;;;5123658;27;20548;-64
2022/08/17 08:05:53;;;;;;;1.67;1.57;;;22.40;96.40;;;;;;5116612;27;20461;-63
2022/08/17 08:08:28;;;;;;;1.43;1.33;;;22.40;96.80;;;;;;5126478;27;20457;-64
2022/08/17 08:11:02;;;;;;;2.03;1.83;;;22.30;96.90;;;;;;5117176;28;20521;-64
2022/08/17 08:13:39;;;;;;;1.73;1.50;;;22.30;97.10;;;;;;5120169;27;20460;-64
2022/08/17 08:16:28;;;;;;;1.63;1.53;;;22.30;97.30;;;;;;5123397;27;20457;-64
2022/08/17 08:19:02;;;;;;;1.50;1.40;;;22.30;97.40;;;;;;5106279;28;20464;-63
2022/08/17 08:21:41;;;;;;;1.63;1.50;;;22.30;97.70;;;;;;5106613;27;20485;-63
2022/08/17 08:24:29;;;;;;;1.67;1.57;;;22.20;97.90;;;;;;5128965;27;20473;-63
2022/08/17 08:27:09;;;;;;;1.83;1.73;;;22.20;98.20;;;;;;5122610;28;20462;-63
2022/08/17 08:29:52;;;;;;;3.83;1.77;;;22.10;98.40;;;;;;5130277;27;20469;-64
2022/08/17 08:32:37;;;;;;;1.90;1.50;;;22.10;98.60;;;;;;5131294;27;20859;-64
2022/08/17 08:35:14;;;;;;;1.43;1.33;;;22.10;98.80;;;;;;5119232;27;20455;-63
2022/08/17 08:37:52;;;;;;;1.70;1.60;;;22.10;99.00;;;;;;5119581;27;20460;-64
2022/08/17 08:40:37;;;;;;;2.00;1.80;;;22.10;99.10;;;;;;5126097;27;20486;-64
2022/08/17 08:43:27;;;;;;;3.00;2.00;;;22.00;99.30;;;;;;5106099;28;20497;-64
2022/08/17 08:46:08;;;;;;;2.00;1.80;;;22.00;99.80;;;;;;5121762;27;20480;-65
2022/08/17 08:49:00;;;;;;;2.97;1.70;;;22.00;99.60;;;;;;5116681;28;20756;-64
2022/08/17 08:51:51;;;;;;;2.70;1.70;;;22.00;99.80;;;;;;5119523;28;20473;-64
2022/08/17 08:54:33;;;;;;;1.77;1.63;;;21.90;99.90;;;;;;5123447;27;20462;-65
2022/08/17 08:57:18;;;;;;;2.07;1.80;;;21.80;99.90;;;;;;5115456;27;20454;-64
2022/08/17 09:00:11;;;;;;;1.53;1.40;;;21.80;99.90;;;;;;5111306;27;20497;-65
2022/08/17 09:03:07;;;;;;;2.70;1.90;;;21.80;99.90;;;;;;5122899;27;20497;-64
2022/08/17 09:06:01;;;;;;;3.47;1.67;;;21.70;99.90;;;;;;5127657;27;20458;-65
2022/08/17 09:08:45;;;;;;;1.70;1.60;;;21.60;99.90;;;;;;5126711;27;20463;-64
2022/08/17 09:11:23;;;;;;;2.00;1.80;;;21.60;99.90;;;;;;5126519;28;20453;-64
2022/08/17 09:14:04;;;;;;;1.40;1.30;;;21.60;99.90;;;;;;5121301;28;20549;-64
2022/08/17 09:16:58;;;;;;;2.27;1.93;;;21.60;99.90;;;;;;5132079;28;20458;-64
2022/08/17 09:19:38;;;;;;;2.40;1.70;;;21.50;99.90;;;;;;5119801;28;20461;-64
2022/08/17 09:22:23;;;;;;;1.77;1.67;;;21.50;99.90;;;;;;5118790;28;20493;-64
2022/08/17 09:24:59;;;;;;;1.87;1.70;;;21.40;99.90;;;;;;5120522;28;20474;-64
2022/08/17 09:27:34;;;;;;;1.83;1.73;;;21.40;99.90;;;;;;5121369;28;20457;-64
2022/08/17 09:30:10;;;;;;;2.00;1.60;;;21.40;99.90;;;;;;5124234;28;20847;-64
2022/08/17 09:32:43;;;;;;;2.07;1.80;;;21.40;99.90;;;;;;5123890;28;20464;-64
2022/08/17 09:35:19;;;;;;;1.80;1.70;;;21.30;99.90;;;;;;5129395;28;20457;-63
2022/08/17 09:38:01;;;;;;;1.67;1.57;;;21.20;99.90;;;;;;5109477;28;20448;-63
2022/08/17 09:40:40;;;;;;;1.70;1.60;;;21.20;99.90;;;;;;5117515;28;20525;-63
2022/08/17 09:43:19;;;;;;;2.80;2.03;;;21.10;99.90;;;;;;5120628;28;20489;-64
2022/08/17 09:45:54;;;;;;;1.87;1.77;;;21.20;99.90;;;;;;5128606;28;20449;-64
2022/08/17 09:48:30;;;;;;;1.70;1.60;;;21.20;99.90;;;;;;5121481;28;20476;-64
2022/08/17 09:51:08;;;;;;;1.80;1.70;;;21.00;99.90;;;;;;5128603;28;20448;-64
2022/08/17 09:53:40;;;;;;;2.53;1.70;;;21.00;99.90;;;;;;5115596;27;20462;-64
2022/08/17 09:56:36;;;;;;;2.40;2.20;;;21.00;99.90;;;;;;5126840;27;20926;-64
2022/08/17 09:59:37;;;;;;;2.87;1.60;;;20.90;99.90;;;;;;5125016;27;20548;-64
2022/08/17 10:02:30;;;;;;;1.47;1.37;;;20.80;99.90;;;;;;5109598;27;20493;-64
2022/08/17 10:05:08;;;;;;;1.93;1.73;;;20.80;99.90;;;;;;5115090;27;20466;-64
2022/08/17 10:07:46;;;;;;;2.17;2.07;;;20.70;99.90;;;;;;5128192;27;20467;-64
2022/08/17 10:10:23;;;;;;;2.00;1.80;;;20.80;99.90;;;;;;5124124;27;20468;-64
2022/08/17 10:13:00;;;;;;;2.10;1.90;;;20.80;99.90;;;;;;5121842;27;20450;-64
2022/08/17 10:15:43;;;;;;;2.53;1.80;;;20.70;99.90;;;;;;5116703;27;20468;-64
2022/08/17 10:18:26;;;;;;;2.30;2.10;;;20.60;99.90;;;;;;5126471;27;20921;-64
2022/08/17 10:26:52;;;;;;;1.70;1.60;;;20.40;99.90;;;;;;5122997;27;20492;-64
2022/08/17 10:29:32;;;;;;;2.60;2.40;;;20.40;99.90;;;;;;5119755;27;20462;-64
2022/08/17 10:32:31;;;;;;;2.50;2.23;;;20.40;99.90;;;;;;5127783;27;20528;-64
2022/08/17 10:35:28;;;;;;;2.10;1.90;;;20.30;99.90;;;;;;5127561;27;20453;-63
2022/08/17 10:38:32;;;;;;;2.40;1.67;;;20.30;99.90;;;;;;5125567;27;20476;-64
2022/08/17 10:41:17;;;;;;;2.07;1.77;;;20.20;99.90;;;;;;5106077;27;20799;-63
2022/08/17 10:43:57;;;;;;;2.07;1.87;;;20.10;99.90;;;;;;5116952;27;20503;-64
2022/08/17 10:47:02;;;;;;;1.80;1.70;;;20.10;99.90;;;;;;5122903;27;20507;-63
2022/08/17 10:49:35;;;;;;;3.60;1.87;;;20.00;99.90;;;;;;5125946;28;20434;-63
2022/08/17 10:52:41;;;;;;;1.47;1.37;;;19.90;99.90;;;;;;5123778;28;20461;-63
2022/08/17 10:55:15;;;;;;;1.50;1.27;;;19.80;99.90;;;;;;5116748;27;20928;-64
2022/08/17 10:57:49;;;;;;;2.20;2.00;;;19.80;99.90;;;;;;5140083;27;20463;-64
2022/08/17 11:00:53;;;;;;;1.93;1.77;;;19.80;99.90;;;;;;5122815;27;20550;-64
2022/08/17 11:03:26;;;;;;;2.13;1.83;;;19.60;99.90;;;;;;5112970;28;20505;-63
2022/08/17 11:06:11;;;;;;;1.70;1.60;;;19.60;99.90;;;;;;5125106;27;20687;-64
2022/08/17 11:09:25;;;;;;;1.80;1.70;;;19.60;99.90;;;;;;5123018;27;20442;-64
2022/08/17 11:12:10;;;;;;;1.90;1.73;;;19.60;99.90;;;;;;5119380;28;20436;-63
2022/08/17 11:15:00;;;;;;;2.20;2.00;;;19.60;99.90;;;;;;5116061;27;20439;-64
2022/08/17 11:17:49;;;;;;;1.83;1.73;;;19.60;99.90;;;;;;5126413;27;20461;-63
2022/08/17 11:20:40;;;;;;;2.80;2.33;;;19.50;99.90;;;;;;5144442;27;20456;-64
2022/08/17 11:23:43;;;;;;;2.63;2.20;;;19.50;99.90;;;;;;5122218;27;20491;-64
2022/08/17 11:26:26;;;;;;;2.07;1.90;;;19.50;99.90;;;;;;5128409;27;20407;-63
2022/08/17 11:29:00;;;;;;;2.47;2.27;;;19.40;99.90;;;;;;5135688;27;20463;-64
2022/08/17 11:31:37;;;;;;;2.13;1.93;;;19.40;99.90;;;;;;5136539;27;20455;-64
2022/08/17 11:34:17;;;;;;;2.37;2.17;;;19.40;99.90;;;;;;5117563;27;20436;-63
2022/08/17 11:37:21;;;;;;;2.10;1.80;;;19.30;99.90;;;;;;5116648;27;20462;-63
2022/08/17 11:40:35;;;;;;;2.13;2.00;;;19.30;99.90;;;;;;5129044;27;20464;-63
2022/08/17 11:43:43;;;;;;;2.63;2.43;;;19.30;99.90;;;;;;5055158;28;20427;-64
2022/08/17 11:46:22;;;;;;;2.40;2.20;;;19.20;99.90;;;;;;5055319;28;20430;-63
2022/08/17 11:52:15;;;;;;;2.27;2.00;;;19.20;99.90;;;;;;5058798;28;20442;-64
2022/08/17 11:54:48;;;;;;;2.53;2.33;;;19.10;99.90;;;;;;5040852;28;20453;-63
2022/08/17 11:57:57;;;;;;;1.97;1.70;;;19.00;99.90;;;;;;5054730;28;20879;-64
2022/08/17 12:00:59;;;;;;;2.00;1.90;;;19.00;99.90;;;;;;5041084;28;20591;-64
2022/08/17 12:03:52;;;;;;;2.20;1.97;;;19.00;99.90;;;;;;5001434;28;20613;-64
2022/08/17 12:06:55;;;;;;;2.67;2.47;;;18.90;99.90;;;;;;5000253;28;20479;-64
2022/08/17 12:09:30;;;;;;;2.50;1.93;;;18.90;99.90;;;;;;4971958;28;20590;-64
2022/08/17 12:12:05;;;;;;;2.20;2.00;;;18.80;99.90;;;;;;4962252;28;20497;-63
2022/08/17 12:14:49;;;;;;;2.17;1.97;;;18.80;99.90;;;;;;4963731;28;20435;-64
2022/08/17 12:17:47;;;;;;;2.17;1.97;;;18.70;99.90;;;;;;4972232;28;21034;-64
2022/08/17 12:20:29;;;;;;;3.13;2.53;;;18.70;99.90;;;;;;5020548;28;20563;-64
2022/08/17 12:23:09;;;;;;;2.57;1.90;;;18.70;99.90;;;;;;5020947;28;20465;-64
2022/08/17 12:25:48;;;;;;;3.13;2.23;;;18.70;99.90;;;;;;5030502;28;20461;-63
2022/08/17 12:28:25;;;;;;;2.80;2.60;;;18.70;99.90;;;;;;5032489;28;20469;-64
2022/08/17 12:31:00;;;;;;;1.80;1.70;;;18.60;99.90;;;;;;5026261;28;20448;-63
2022/08/17 12:33:31;;;;;;;2.77;2.47;;;18.50;99.90;;;;;;5007932;28;20453;-64
2022/08/17 12:36:06;;;;;;;2.40;2.20;;;18.60;99.90;;;;;;5011317;28;20458;-64
2022/08/17 12:38:40;;;;;;;2.37;2.00;;;18.50;99.90;;;;;;5053734;28;20542;-63
2022/08/17 12:41:27;;;;;;;2.77;2.57;;;18.50;99.90;;;;;;5062295;28;20461;-63
2022/08/17 12:44:01;;;;;;;2.90;2.53;;;18.40;99.90;;;;;;5076401;28;20474;-63
2022/08/17 12:46:34;;;;;;;4.50;2.63;;;18.40;99.90;;;;;;5122207;27;20758;-63
2022/08/17 12:49:17;;;;;;;2.47;2.10;;;18.40;99.90;;;;;;5128125;27;20452;-63
2022/08/17 12:51:48;;;;;;;4.13;2.30;;;18.40;99.90;;;;;;5132626;27;20438;-63
2022/08/17 12:54:30;;;;;;;2.97;2.50;;;18.40;99.90;;;;;;5121000;28;20467;-64
2022/08/17 12:57:06;;;;;;;3.13;2.60;;;18.40;99.90;;;;;;5121323;28;20461;-63
2022/08/17 12:59:42;;;;;;;2.23;1.97;;;18.30;99.90;;;;;;5123926;27;20484;-63
2022/08/17 13:02:28;;;;;;;2.50;2.30;;;18.30;99.90;;;;;;5120231;27;20441;-64
2022/08/17 13:05:01;;;;;;;2.93;2.50;;;18.20;99.90;;;;;;5120528;27;20500;-63
2022/08/17 13:07:36;;;;;;;2.50;2.30;;;18.10;99.90;;;;;;5117848;28;20467;-64
2022/08/17 13:10:14;;;;;;;2.60;2.40;;;18.00;99.90;;;;;;5112088;28;20429;-63
2022/08/17 13:12:45;;;;;;;2.20;2.00;;;18.00;99.90;;;;;;5125771;27;20436;-63
2022/08/17 13:15:23;;;;;;;2.63;2.40;;;17.90;99.90;;;;;;5121374;28;20510;-63
2022/08/17 13:18:04;;;;;;;2.50;2.30;;;18.00;99.90;;;;;;5127072;28;20445;-63
2022/08/17 13:20:37;;;;;;;2.83;2.10;;;18.00;99.90;;;;;;5119394;28;21068;-63
2022/08/17 13:23:10;;;;;;;3.87;2.57;;;18.00;99.90;;;;;;5127334;28;20954;-63
2022/08/17 13:25:45;;;;;;;2.50;2.30;;;18.00;99.90;;;;;;5125870;27;20464;-63
2022/08/17 13:28:19;;;;;;;2.73;1.90;;;17.90;99.90;;;;;;5123736;27;20464;-64
2022/08/17 13:31:31;;;;;;;2.30;2.20;;;17.80;99.90;;;;;;5125968;27;20441;-63
2022/08/17 13:34:17;;;;;;;2.50;2.30;;;17.80;99.90;;;;;;5118406;28;20432;-63
2022/08/17 13:36:48;;;;;;;2.53;2.33;;;17.90;99.90;;;;;;5139858;27;20449;-63
2022/08/17 13:39:22;;;;;;;2.50;2.30;;;17.90;99.90;;;;;;5129280;27;20507;-63
2022/08/17 13:41:55;;;;;;;3.27;2.30;;;17.80;99.90;;;;;;5130898;27;20449;-63
2022/08/17 13:44:38;;;;;;;2.60;2.00;;;17.90;99.90;;;;;;5126139;27;20475;-63
2022/08/17 13:47:18;;;;;;;3.90;2.17;;;18.00;99.90;;;;;;5127048;27;20949;-63
2022/08/17 13:49:50;;;;;;;2.50;2.30;;;18.00;99.90;;;;;;5130116;27;20453;-63
2022/08/17 13:52:37;;;;;;;2.27;2.07;;;18.00;99.90;;;;;;5125368;27;21049;-64
2022/08/17 13:55:18;;;;;;;2.57;2.37;;;18.00;99.90;;;;;;5126768;27;20416;-63
2022/08/17 13:57:52;;;;;;;2.20;2.00;;;18.00;99.90;;;;;;5125772;27;20457;-64
2022/08/17 14:00:38;;;;;;;2.50;2.30;;;18.00;99.90;;;;;;5121563;27;20509;-63
2022/08/17 14:03:08;;;;;;;4.20;2.60;;;18.10;99.90;;;;;;5121008;28;20448;-64
2022/08/17 14:05:40;;;;;;;2.37;2.20;;;18.20;99.90;;;;;;5123684;28;20459;-63
2022/08/17 14:08:13;;;;;;;3.00;2.30;;;18.20;99.90;;;;;;5125992;27;20449;-63
2022/08/17 14:10:45;;;;;;;2.10;1.90;;;18.20;99.90;;;;;;5135533;27;20523;-64
2022/08/17 14:13:17;;;;;;;3.07;2.37;;;18.20;99.90;;;;;;5128960;27;20489;-64
2022/08/17 14:15:48;;;;;;;2.60;2.40;;;18.30;99.90;;;;;;5133533;27;20422;-63